DLH7EL LIPZ-EDDF
Flight info
| Callsign | DLH7EL |
|---|---|
| Flight time | N/A |
| Altitude | 24000 |
| Route | ROKIB DCT NAXAV DCT UNIMI L12 MOGTI Q163 ETASA T163 SPESA SPESA5B |
| Aircraft | A320/M-SDE2E3FGIJ1LORWXYZ/HB1 |
Departure
| Time | 2026-05-05 09:17 |
|---|---|
| Airport | Venice Marco Polo Airport (LIPZ) |
Arrival
| Time | N/A |
|---|---|
| Airport | Frankfurt Main Airport (EDDF) |
| Time | Latitude | Longitude | Altitude | Speed | Heading |
|---|---|---|---|---|---|
| 2026-05-05 08:47 | 45.50616 | 12.34218 | 16 ft | 0 kts | 267° |
| 2026-05-05 09:05 | 45.50616 | 12.34227 | 16 ft | 4 kts | 267° |
| 2026-05-05 09:06 | 45.50616 | 12.34236 | 16 ft | 4 kts | 267° |
| 2026-05-05 09:06 | 45.50617 | 12.34258 | 16 ft | 0 kts | 267° |
| 2026-05-05 09:06 | 45.50617 | 12.34252 | 16 ft | 1 kts | 267° |
| 2026-05-05 09:06 | 45.50616 | 12.34240 | 16 ft | 2 kts | 267° |
| 2026-05-05 09:07 | 45.50616 | 12.34221 | 16 ft | 2 kts | 267° |
| 2026-05-05 09:07 | 45.50615 | 12.34209 | 16 ft | 0 kts | 267° |
| 2026-05-05 09:07 | 45.50616 | 12.34231 | 16 ft | 2 kts | 267° |
| 2026-05-05 09:08 | 45.50617 | 12.34255 | 16 ft | 2 kts | 267° |
| 2026-05-05 09:08 | 45.50618 | 12.34280 | 16 ft | 2 kts | 267° |
| 2026-05-05 09:08 | 45.50619 | 12.34304 | 16 ft | 2 kts | 267° |
| 2026-05-05 09:08 | 45.50621 | 12.34327 | 16 ft | 2 kts | 215° |
| 2026-05-05 09:09 | 45.50637 | 12.34334 | 17 ft | 1 kts | 181° |
| 2026-05-05 09:09 | 45.50638 | 12.34334 | 17 ft | 0 kts | 181° |
| 2026-05-05 09:11 | 45.50636 | 12.34334 | 17 ft | 2 kts | 181° |
| 2026-05-05 09:12 | 45.50603 | 12.34335 | 16 ft | 5 kts | 177° |
| 2026-05-05 09:12 | 45.50549 | 12.34339 | 16 ft | 10 kts | 177° |
| 2026-05-05 09:12 | 45.50472 | 12.34344 | 16 ft | 15 kts | 178° |
| 2026-05-05 09:12 | 45.50366 | 12.34350 | 16 ft | 14 kts | 173° |
| 2026-05-05 09:13 | 45.50277 | 12.34329 | 16 ft | 12 kts | 214° |
| 2026-05-05 09:13 | 45.50214 | 12.34252 | 16 ft | 11 kts | 222° |
| 2026-05-05 09:13 | 45.50160 | 12.34179 | 16 ft | 10 kts | 221° |
| 2026-05-05 09:13 | 45.50101 | 12.34104 | 16 ft | 16 kts | 222° |
| 2026-05-05 09:14 | 45.50014 | 12.33993 | 15 ft | 12 kts | 221° |
| 2026-05-05 09:14 | 45.49950 | 12.33911 | 16 ft | 13 kts | 222° |
| 2026-05-05 09:14 | 45.49878 | 12.33821 | 16 ft | 17 kts | 223° |
| 2026-05-05 09:14 | 45.49781 | 12.33696 | 16 ft | 17 kts | 220° |
| 2026-05-05 09:15 | 45.49684 | 12.33611 | 17 ft | 16 kts | 213° |
| 2026-05-05 09:15 | 45.49618 | 12.33532 | 16 ft | 11 kts | 220° |
| 2026-05-05 09:15 | 45.49556 | 12.33525 | 16 ft | 9 kts | 146° |
| 2026-05-05 09:15 | 45.49510 | 12.33598 | 17 ft | 16 kts | 133° |
| 2026-05-05 09:16 | 45.49441 | 12.33709 | 16 ft | 13 kts | 131° |
| 2026-05-05 09:16 | 45.49447 | 12.33818 | 16 ft | 12 kts | 43° |
| 2026-05-05 09:16 | 45.49543 | 12.33939 | 15 ft | 41 kts | 41° |
| 2026-05-05 09:16 | 45.49959 | 12.34476 | 15 ft | 116 kts | 42° |
| 2026-05-05 09:17 | 45.50705 | 12.35419 | 114 ft | 160 kts | 39° |
| 2026-05-05 09:17 | 45.51527 | 12.36431 | 957 ft | 155 kts | 42° |
| 2026-05-05 09:17 | 45.52315 | 12.37513 | 1620 ft | 165 kts | 49° |
| 2026-05-05 09:17 | 45.53159 | 12.38767 | 2036 ft | 186 kts | 49° |
| 2026-05-05 09:18 | 45.54104 | 12.40184 | 2517 ft | 205 kts | 49° |
| 2026-05-05 09:18 | 45.55265 | 12.41416 | 3312 ft | 214 kts | 21° |
| 2026-05-05 09:18 | 45.56757 | 12.41530 | 4138 ft | 222 kts | 343° |
| 2026-05-05 09:18 | 45.58062 | 12.40377 | 4957 ft | 224 kts | 314° |
| 2026-05-05 09:19 | 45.59081 | 12.38697 | 5810 ft | 224 kts | 297° |
| 2026-05-05 09:19 | 45.59677 | 12.36630 | 6514 ft | 232 kts | 277° |
| 2026-05-05 09:19 | 45.59851 | 12.34241 | 6954 ft | 254 kts | 270° |
| 2026-05-05 09:19 | 45.59985 | 12.31617 | 7573 ft | 273 kts | 271° |
| 2026-05-05 09:20 | 45.60142 | 12.28877 | 8545 ft | 280 kts | 271° |
| 2026-05-05 09:20 | 45.60312 | 12.26081 | 9613 ft | 285 kts | 272° |
| 2026-05-05 09:20 | 45.60489 | 12.23223 | 10468 ft | 298 kts | 272° |
| 2026-05-05 09:20 | 45.60676 | 12.20179 | 11121 ft | 314 kts | 272° |
| 2026-05-05 09:21 | 45.60867 | 12.17041 | 12031 ft | 320 kts | 272° |
| 2026-05-05 09:21 | 45.61060 | 12.13861 | 13046 ft | 323 kts | 271° |
| 2026-05-05 09:21 | 45.61251 | 12.10652 | 14017 ft | 326 kts | 271° |
| 2026-05-05 09:21 | 45.61441 | 12.07418 | 14852 ft | 329 kts | 271° |
| 2026-05-05 09:22 | 45.61634 | 12.04146 | 15651 ft | 332 kts | 271° |
| 2026-05-05 09:22 | 45.61828 | 12.00843 | 16437 ft | 336 kts | 271° |
| 2026-05-05 09:22 | 45.62231 | 11.97529 | 17196 ft | 344 kts | 283° |
| 2026-05-05 09:22 | 45.63200 | 11.94375 | 17934 ft | 353 kts | 297° |
| 2026-05-05 09:23 | 45.64728 | 11.91579 | 18592 ft | 363 kts | 312° |
| 2026-05-05 09:23 | 45.66746 | 11.89339 | 19200 ft | 371 kts | 322° |
| 2026-05-05 09:23 | 45.68899 | 11.87264 | 19846 ft | 374 kts | 322° |
| 2026-05-05 09:23 | 45.71065 | 11.85163 | 20483 ft | 377 kts | 322° |
| 2026-05-05 09:24 | 45.73326 | 11.83214 | 21110 ft | 384 kts | 330° |
| 2026-05-05 09:24 | 45.75746 | 11.81534 | 21711 ft | 388 kts | 331° |
| 2026-05-05 09:24 | 45.78185 | 11.79848 | 22302 ft | 391 kts | 331° |
| 2026-05-05 09:24 | 45.80618 | 11.78167 | 22903 ft | 395 kts | 331° |
| 2026-05-05 09:25 | 45.83134 | 11.76427 | 23498 ft | 398 kts | 331° |
| 2026-05-05 09:25 | 45.85640 | 11.74689 | 23999 ft | 402 kts | 331° |
| 2026-05-05 09:25 | 45.88168 | 11.72938 | 24518 ft | 405 kts | 331° |
| 2026-05-05 09:25 | 45.90683 | 11.71202 | 24997 ft | 408 kts | 331° |
| 2026-05-05 09:26 | 45.93248 | 11.69432 | 25489 ft | 411 kts | 332° |
| 2026-05-05 09:26 | 45.95832 | 11.67646 | 25974 ft | 414 kts | 332° |
| 2026-05-05 09:26 | 45.98436 | 11.65845 | 26441 ft | 416 kts | 331° |
| 2026-05-05 09:26 | 46.01047 | 11.64034 | 26931 ft | 418 kts | 331° |
| 2026-05-05 09:27 | 46.03676 | 11.62204 | 27385 ft | 421 kts | 331° |
| 2026-05-05 09:27 | 46.06316 | 11.60361 | 27840 ft | 423 kts | 331° |
| 2026-05-05 09:27 | 46.08976 | 11.58504 | 28301 ft | 426 kts | 332° |
| 2026-05-05 09:27 | 46.11658 | 11.56631 | 28753 ft | 429 kts | 332° |
| 2026-05-05 09:28 | 46.14354 | 11.54749 | 29198 ft | 432 kts | 332° |
| 2026-05-05 09:28 | 46.17068 | 11.52854 | 29620 ft | 435 kts | 332° |
| 2026-05-05 09:28 | 46.19799 | 11.50945 | 29957 ft | 437 kts | 332° |
| 2026-05-05 09:28 | 46.22512 | 11.49049 | 30017 ft | 425 kts | 332° |
| 2026-05-05 09:29 | 46.25119 | 11.47228 | 29992 ft | 407 kts | 332° |
| 2026-05-05 09:29 | 46.27620 | 11.45480 | 29992 ft | 392 kts | 331° |
| 2026-05-05 09:29 | 46.30053 | 11.43771 | 29992 ft | 388 kts | 331° |
| 2026-05-05 09:30 | 46.34883 | 11.40359 | 30008 ft | 386 kts | 331° |
| 2026-05-05 09:30 | 46.39710 | 11.36948 | 30008 ft | 385 kts | 331° |
| 2026-05-05 09:31 | 46.44523 | 11.33544 | 30001 ft | 384 kts | 331° |
| 2026-05-05 09:31 | 46.49367 | 11.30196 | 30003 ft | 387 kts | 333° |
| 2026-05-05 09:32 | 46.54314 | 11.27043 | 29999 ft | 389 kts | 334° |
| 2026-05-05 09:32 | 46.59276 | 11.23922 | 29974 ft | 389 kts | 333° |
| 2026-05-05 09:33 | 46.64226 | 11.20742 | 29976 ft | 389 kts | 333° |
| 2026-05-05 09:33 | 46.68335 | 11.18078 | 29972 ft | 389 kts | 333° |
| 2026-05-05 09:34 | 46.73278 | 11.14867 | 29986 ft | 389 kts | 333° |
| 2026-05-05 09:34 | 46.78215 | 11.11656 | 29976 ft | 388 kts | 333° |
| 2026-05-05 09:35 | 46.83148 | 11.08444 | 29970 ft | 388 kts | 333° |
| 2026-05-05 09:35 | 46.90536 | 11.03568 | 29960 ft | 389 kts | 332° |
| 2026-05-05 09:36 | 46.95454 | 11.00245 | 29919 ft | 390 kts | 332° |
| 2026-05-05 09:36 | 47.00409 | 10.96982 | 29920 ft | 391 kts | 333° |
| 2026-05-05 09:37 | 47.05390 | 10.93753 | 29898 ft | 391 kts | 333° |
| 2026-05-05 09:37 | 47.10369 | 10.90510 | 29910 ft | 391 kts | 332° |
| 2026-05-05 09:38 | 47.15304 | 10.87268 | 29898 ft | 391 kts | 332° |
| 2026-05-05 09:38 | 47.20208 | 10.84042 | 29896 ft | 370 kts | 333° |